Time;durP1;ratioP1;P1;durP2;ratioP2;P2;SDS_P1;SDS_P2;PMS_P1;PMS_P2;Temp;Humidity;BMP_temperature;BMP_pressure;BME280_temperature;BME280_humidity;BME280_pressure;Samples;Min_cycle;Max_cycle;Signal;HPM_P1;HPM_P2
2022/06/27 00:00:16;;;;;;;1.52;1.42;;;;;;;;;;5072621;28;20036;-78
2022/06/27 00:03:02;;;;;;;2.50;1.60;;;;;;;;;;5070146;28;20040;-79
2022/06/27 00:05:47;;;;;;;2.63;1.10;;;;;;;;;;5072228;28;20043;-68
2022/06/27 00:08:34;;;;;;;2.38;1.13;;;;;;;;;;5070039;28;20475;-61
2022/06/27 00:11:20;;;;;;;1.15;0.88;;;;;;;;;;5070595;28;20028;-62
2022/06/27 00:14:06;;;;;;;3.47;0.90;;;;;;;;;;5054025;28;20036;-62
2022/06/27 00:16:52;;;;;;;2.42;0.98;;;;;;;;;;5069527;28;20111;-61
2022/06/27 00:19:37;;;;;;;1.83;0.90;;;;;;;;;;5069293;28;20063;-61
2022/06/27 00:22:23;;;;;;;1.75;1.10;;;;;;;;;;5069966;28;20031;-61
2022/06/27 00:25:09;;;;;;;2.70;0.90;;;;;;;;;;5069223;28;20378;-66
2022/06/27 00:27:55;;;;;;;4.22;1.70;;;;;;;;;;5055228;28;20017;-83
2022/06/27 00:30:41;;;;;;;1.73;0.95;;;;;;;;;;5055072;28;20032;-82
2022/06/27 00:33:26;;;;;;;1.25;1.02;;;;;;;;;;5068929;28;20029;-81
2022/06/27 00:36:12;;;;;;;3.38;1.00;;;;;;;;;;5058828;28;20105;-80
2022/06/27 00:38:57;;;;;;;4.00;1.42;;;;;;;;;;5068852;28;20056;-81
2022/06/27 00:41:43;;;;;;;1.55;1.00;;;;;;;;;;5074446;28;20032;-81
2022/06/27 00:44:39;;;;;;;4.50;1.50;;;;;;;;;;5073122;28;20387;-60
2022/06/27 00:47:25;;;;;;;3.05;1.20;;;;;;;;;;5071675;28;20086;-65
2022/06/27 00:50:10;;;;;;;2.85;1.20;;;;;;;;;;5073940;28;20028;-66
2022/06/27 00:52:57;;;;;;;5.07;1.65;;;;;;;;;;5071566;28;20086;-67
2022/06/27 00:55:43;;;;;;;8.15;2.10;;;;;;;;;;5053266;28;20487;-63
2022/06/27 00:58:29;;;;;;;5.47;1.30;;;;;;;;;;5073409;28;20060;-64
2022/06/27 01:01:14;;;;;;;3.97;1.20;;;;;;;;;;5073639;28;20025;-80
2022/06/27 01:04:01;;;;;;;4.35;1.45;;;;;;;;;;5069777;28;20115;-65
2022/06/27 01:06:48;;;;;;;4.75;1.48;;;;;;;;;;5062018;28;20029;-64
2022/06/27 01:09:34;;;;;;;3.08;1.20;;;;;;;;;;5074281;28;20110;-64
2022/06/27 01:12:19;;;;;;;10.32;1.90;;;;;;;;;;5072805;28;20214;-64
2022/06/27 01:15:05;;;;;;;4.20;1.30;;;;;;;;;;5073024;28;20029;-65
2022/06/27 01:17:51;;;;;;;2.90;1.23;;;;;;;;;;5059891;28;20100;-64
2022/06/27 01:20:37;;;;;;;3.05;1.40;;;;;;;;;;5072005;28;20036;-71
2022/06/27 01:23:22;;;;;;;3.22;1.30;;;;;;;;;;5070801;28;20125;-62
2022/06/27 01:26:09;;;;;;;7.15;1.40;;;;;;;;;;5075114;28;20476;-62
2022/06/27 01:28:54;;;;;;;3.78;1.15;;;;;;;;;;5054485;28;20691;-62
2022/06/27 01:31:40;;;;;;;4.20;1.38;;;;;;;;;;5074556;28;20032;-60
2022/06/27 01:34:26;;;;;;;7.45;1.50;;;;;;;;;;5065394;28;20090;-61
2022/06/27 01:37:11;;;;;;;5.03;1.40;;;;;;;;;;5072370;28;20032;-61
2022/06/27 01:40:00;;;;;;;1.98;1.15;;;;;;;;;;5068678;28;20039;-61
2022/06/27 01:42:45;;;;;;;5.45;1.67;;;;;;;;;;5075709;28;20033;-76
2022/06/27 01:45:32;;;;;;;2.88;1.33;;;;;;;;;;5073848;28;20085;-80
2022/06/27 01:48:18;;;;;;;3.05;1.20;;;;;;;;;;5073775;28;20114;-75
2022/06/27 01:51:04;;;;;;;5.22;1.45;;;;;;;;;;5060477;28;20025;-77
2022/06/27 01:53:51;;;;;;;4.10;1.10;;;;;;;;;;5072117;28;20017;-77
2022/06/27 01:56:37;;;;;;;2.70;1.17;;;;;;;;;;5072913;28;20039;-61
2022/06/27 01:59:29;;;;;;;4.03;1.20;;;;;;;;;;5073289;28;20032;-77
2022/06/27 02:02:15;;;;;;;2.75;1.38;;;;;;;;;;5071106;28;20067;-78
2022/06/27 02:05:01;;;;;;;3.20;0.90;;;;;;;;;;5073161;28;20040;-78
2022/06/27 02:07:47;;;;;;;2.85;1.17;;;;;;;;;;5072554;28;20037;-78
2022/06/27 02:10:33;;;;;;;7.43;2.05;;;;;;;;;;5057343;28;20475;-78
2022/06/27 02:13:18;;;;;;;4.30;1.70;;;;;;;;;;5070325;28;20048;-79
2022/06/27 02:16:15;;;;;;;5.72;1.50;;;;;;;;;;5071623;28;20367;-63
2022/06/27 02:19:01;;;;;;;4.85;1.50;;;;;;;;;;5071419;28;20187;-64
2022/06/27 02:21:47;;;;;;;2.83;1.17;;;;;;;;;;5069629;28;20025;-63
2022/06/27 02:24:33;;;;;;;2.42;1.10;;;;;;;;;;5072593;28;20036;-64
2022/06/27 02:27:19;;;;;;;3.65;1.50;;;;;;;;;;5070609;28;20383;-64
2022/06/27 02:30:05;;;;;;;5.28;1.60;;;;;;;;;;5070513;28;20020;-65
2022/06/27 02:32:50;;;;;;;1.70;1.10;;;;;;;;;;5061883;28;20024;-63
2022/06/27 02:35:36;;;;;;;3.35;1.60;;;;;;;;;;5069961;28;20025;-58
2022/06/27 02:38:22;;;;;;;1.95;1.48;;;;;;;;;;5063681;28;20048;-59
2022/06/27 02:41:09;;;;;;;3.08;1.20;;;;;;;;;;5063580;28;20487;-61
2022/06/27 02:44:02;;;;;;;3.33;1.30;;;;;;;;;;5070414;28;20021;-59
2022/06/27 02:46:49;;;;;;;2.92;1.42;;;;;;;;;;5072074;28;20487;-60
2022/06/27 02:49:35;;;;;;;3.92;1.10;;;;;;;;;;5073534;28;20035;-60
2022/06/27 02:52:26;;;;;;;5.10;1.50;;;;;;;;;;5070364;28;20483;-60
2022/06/27 02:55:13;;;;;;;1.08;0.93;;;;;;;;;;5051523;28;20062;-70
2022/06/27 02:58:00;;;;;;;2.17;1.50;;;;;;;;;;5067599;28;20028;-72
2022/06/27 03:00:48;;;;;;;1.77;1.20;;;;;;;;;;5067548;28;20036;-71
2022/06/27 03:03:34;;;;;;;4.63;1.40;;;;;;;;;;5069511;28;20032;-71
2022/06/27 03:06:20;;;;;;;3.03;1.30;;;;;;;;;;5072322;28;20020;-71
2022/06/27 03:09:07;;;;;;;2.05;1.20;;;;;;;;;;5072474;28;20383;-71
2022/06/27 03:11:53;;;;;;;2.45;1.00;;;;;;;;;;5071490;28;20078;-60
2022/06/27 03:14:38;;;;;;;3.33;1.02;;;;;;;;;;5070550;28;20033;-62
2022/06/27 03:17:24;;;;;;;3.92;1.30;;;;;;;;;;5071977;28;20074;-60
2022/06/27 03:20:10;;;;;;;1.60;1.05;;;;;;;;;;5069305;28;20140;-60
2022/06/27 03:22:55;;;;;;;3.90;1.20;;;;;;;;;;5064247;28;20028;-59
2022/06/27 03:25:41;;;;;;;2.97;1.38;;;;;;;;;;5071225;28;20024;-60
2022/06/27 03:28:26;;;;;;;2.20;1.15;;;;;;;;;;5070233;28;20527;-63
2022/06/27 03:31:13;;;;;;;3.13;1.35;;;;;;;;;;5070438;28;20025;-67
2022/06/27 03:33:58;;;;;;;2.63;1.13;;;;;;;;;;5070393;28;20066;-64
2022/06/27 03:36:44;;;;;;;3.13;1.23;;;;;;;;;;5072593;28;20025;-64
2022/06/27 03:39:29;;;;;;;4.63;1.75;;;;;;;;;;5071285;28;20024;-63
2022/06/27 03:42:15;;;;;;;3.42;1.17;;;;;;;;;;5071009;28;20036;-64
2022/06/27 03:45:01;;;;;;;4.28;1.60;;;;;;;;;;5069527;28;20170;-64
2022/06/27 03:47:50;;;;;;;7.22;1.60;;;;;;;;;;5073376;28;20063;-63
2022/06/27 03:50:36;;;;;;;2.85;1.42;;;;;;;;;;5065474;28;20044;-67
2022/06/27 03:53:21;;;;;;;2.10;1.42;;;;;;;;;;5065192;28;20078;-67
2022/06/27 03:56:07;;;;;;;2.28;1.40;;;;;;;;;;5064214;28;20494;-68
2022/06/27 03:58:52;;;;;;;4.63;1.40;;;;;;;;;;5068317;28;20021;-67
2022/06/27 04:01:38;;;;;;;3.90;1.42;;;;;;;;;;5070477;28;20055;-68
2022/06/27 04:04:24;;;;;;;1.58;1.20;;;;;;;;;;5070112;28;20032;-59
2022/06/27 04:07:10;;;;;;;3.25;1.40;;;;;;;;;;5072276;28;20027;-62
2022/06/27 04:09:55;;;;;;;2.92;1.85;;;;;;;;;;5069960;28;20082;-67
2022/06/27 04:12:41;;;;;;;4.63;1.95;;;;;;;;;;5065029;28;20032;-68
2022/06/27 04:15:27;;;;;;;3.17;1.60;;;;;;;;;;5068888;28;20024;-66
2022/06/27 04:18:12;;;;;;;7.65;2.15;;;;;;;;;;5070485;28;20376;-67
2022/06/27 04:20:58;;;;;;;5.15;2.10;;;;;;;;;;5068459;28;20029;-67
2022/06/27 04:23:43;;;;;;;1.85;1.40;;;;;;;;;;5066822;28;20467;-63
2022/06/27 04:26:29;;;;;;;5.88;1.50;;;;;;;;;;5067155;28;20032;-60
2022/06/27 04:29:15;;;;;;;4.82;1.63;;;;;;;;;;5068072;28;20036;-61
2022/06/27 04:32:00;;;;;;;5.00;1.90;;;;;;;;;;5071196;28;20170;-59
2022/06/27 04:34:46;;;;;;;2.88;2.10;;;;;;;;;;5068799;28;20028;-58
2022/06/27 04:37:32;;;;;;;2.97;1.23;;;;;;;;;;5070861;28;20617;-59
2022/06/27 04:40:19;;;;;;;2.50;1.40;;;;;;;;;;5066951;28;20111;-60
2022/06/27 04:43:05;;;;;;;4.10;1.48;;;;;;;;;;5069478;28;20063;-63
2022/06/27 04:45:52;;;;;;;3.80;1.38;;;;;;;;;;5070561;28;20036;-62
2022/06/27 04:48:38;;;;;;;4.00;1.90;;;;;;;;;;5069050;28;20467;-62
2022/06/27 04:51:24;;;;;;;3.40;1.58;;;;;;;;;;5061087;28;20067;-62
2022/06/27 04:54:10;;;;;;;4.05;1.65;;;;;;;;;;5072831;28;20078;-65
2022/06/27 04:56:56;;;;;;;3.70;1.80;;;;;;;;;;5069622;28;20024;-61
2022/06/27 04:59:41;;;;;;;4.63;1.50;;;;;;;;;;5070334;28;20112;-80
2022/06/27 05:02:27;;;;;;;2.85;1.77;;;;;;;;;;5064566;28;20082;-72
2022/06/27 05:05:12;;;;;;;4.22;1.83;;;;;;;;;;5072084;28;20093;-80
2022/06/27 05:08:01;;;;;;;2.60;1.25;;;;;;;;;;5070199;28;20403;-79
2022/06/27 05:10:47;;;;;;;4.88;1.50;;;;;;;;;;5070528;28;20029;-79
2022/06/27 05:13:33;;;;;;;6.40;2.10;;;;;;;;;;5064503;28;20016;-80
2022/06/27 05:16:18;;;;;;;5.70;1.70;;;;;;;;;;5062413;28;20032;-75
2022/06/27 05:19:04;;;;;;;3.70;1.90;;;;;;;;;;5068320;28;20103;-60
2022/06/27 05:21:50;;;;;;;6.50;1.75;;;;;;;;;;5071134;28;20027;-59
2022/06/27 05:24:35;;;;;;;3.45;1.50;;;;;;;;;;5070667;28;20029;-61
2022/06/27 05:27:22;;;;;;;2.92;1.38;;;;;;;;;;5062895;28;20119;-60
2022/06/27 05:30:08;;;;;;;3.65;1.48;;;;;;;;;;5074960;28;20032;-60
2022/06/27 05:32:54;;;;;;;3.00;1.60;;;;;;;;;;5074588;28;20081;-61
2022/06/27 05:35:40;;;;;;;4.68;1.73;;;;;;;;;;5074054;28;20047;-60
2022/06/27 05:38:25;;;;;;;2.35;1.48;;;;;;;;;;5074672;28;20028;-59
2022/06/27 05:41:11;;;;;;;3.15;1.75;;;;;;;;;;5069965;28;20064;-59
2022/06/27 05:43:59;;;;;;;5.35;1.73;;;;;;;;;;5072766;28;20024;-61
2022/06/27 05:46:45;;;;;;;3.25;1.48;;;;;;;;;;5071777;28;20070;-60
2022/06/27 05:49:31;;;;;;;4.47;1.60;;;;;;;;;;5070935;28;20498;-61
2022/06/27 05:52:17;;;;;;;2.85;1.58;;;;;;;;;;5073301;28;20040;-63
2022/06/27 05:55:02;;;;;;;4.13;1.63;;;;;;;;;;5071968;28;20131;-82
2022/06/27 05:57:48;;;;;;;5.72;1.90;;;;;;;;;;5071544;28;20119;-64
2022/06/27 06:00:34;;;;;;;4.47;2.20;;;;;;;;;;5069652;28;20108;-68
2022/06/27 06:03:20;;;;;;;2.50;1.48;;;;;;;;;;5072692;28;20107;-69
2022/06/27 06:06:06;;;;;;;1.80;1.35;;;;;;;;;;5057171;28;20029;-69
2022/06/27 06:08:53;;;;;;;5.00;1.33;;;;;;;;;;5061022;28;20031;-68
2022/06/27 06:11:39;;;;;;;3.42;1.40;;;;;;;;;;5054263;28;20035;-69
2022/06/27 06:14:26;;;;;;;4.60;1.70;;;;;;;;;;5072314;28;20339;-68
2022/06/27 06:17:12;;;;;;;5.15;1.90;;;;;;;;;;5071354;28;20040;-60
2022/06/27 06:19:58;;;;;;;1.85;1.25;;;;;;;;;;5068251;28;20510;-61
2022/06/27 06:22:45;;;;;;;2.90;1.25;;;;;;;;;;5069876;28;20102;-59
2022/06/27 06:25:30;;;;;;;3.65;1.58;;;;;;;;;;5067847;28;20032;-60
2022/06/27 06:28:16;;;;;;;3.85;1.50;;;;;;;;;;5065723;28;20462;-60
2022/06/27 06:31:03;;;;;;;4.03;1.15;;;;;;;;;;5070025;28;20036;-60
2022/06/27 06:33:50;;;;;;;2.80;1.38;;;;;;;;;;5067580;28;20095;-79
2022/06/27 06:36:38;;;;;;;3.95;1.35;;;;;;;;;;5071093;28;20471;-70
2022/06/27 06:39:24;;;;;;;5.30;1.92;;;;;;;;;;5059294;28;20063;-69
2022/06/27 06:42:10;;;;;;;3.20;1.92;;;;;;;;;;5069225;28;20032;-69
2022/06/27 06:44:55;;;;;;;5.53;2.08;;;;;;;;;;5069279;28;20054;-70
2022/06/27 06:47:44;;;;;;;1.85;1.08;;;;;;;;;;5069382;28;20033;-69
2022/06/27 06:50:30;;;;;;;4.45;1.30;;;;;;;;;;5070623;28;20029;-77
2022/06/27 06:53:16;;;;;;;5.43;1.83;;;;;;;;;;5070488;28;20442;-62
2022/06/27 06:56:03;;;;;;;3.20;1.05;;;;;;;;;;5068739;28;20052;-63
2022/06/27 06:58:49;;;;;;;8.05;1.42;;;;;;;;;;5056875;28;20068;-63
2022/06/27 07:01:35;;;;;;;4.05;1.40;;;;;;;;;;5063260;28;20368;-64
2022/06/27 07:04:20;;;;;;;1.35;0.98;;;;;;;;;;5062373;28;20395;-63
2022/06/27 07:07:06;;;;;;;4.78;1.27;;;;;;;;;;5081345;28;20111;-63
2022/06/27 07:09:52;;;;;;;1.17;0.95;;;;;;;;;;5054594;28;20111;-69
2022/06/27 07:12:38;;;;;;;2.67;1.10;;;;;;;;;;5053006;28;20033;-69
2022/06/27 07:15:24;;;;;;;1.55;1.00;;;;;;;;;;5073531;28;20020;-68
2022/06/27 07:18:10;;;;;;;1.13;1.00;;;;;;;;;;5068864;28;20032;-69
2022/06/27 07:20:55;;;;;;;3.47;1.30;;;;;;;;;;5067637;28;20208;-78
2022/06/27 07:23:41;;;;;;;4.20;2.53;;;;;;;;;;5062566;28;20123;-81
2022/06/27 07:26:27;;;;;;;2.78;1.13;;;;;;;;;;5069691;28;20056;-79
2022/06/27 07:29:13;;;;;;;2.67;1.10;;;;;;;;;;5072869;28;20376;-68
2022/06/27 07:31:59;;;;;;;3.90;1.15;;;;;;;;;;5073596;28;20028;-70
2022/06/27 07:34:44;;;;;;;2.08;0.90;;;;;;;;;;5066499;28;20368;-70
2022/06/27 07:37:31;;;;;;;4.55;1.30;;;;;;;;;;5062145;28;20035;-70
2022/06/27 07:40:17;;;;;;;2.63;0.93;;;;;;;;;;5070099;28;20124;-69
2022/06/27 07:43:05;;;;;;;3.78;1.20;;;;;;;;;;5071879;28;20541;-70
2022/06/27 07:45:51;;;;;;;3.03;1.08;;;;;;;;;;5072008;28;20103;-78
2022/06/27 07:48:37;;;;;;;2.35;1.30;;;;;;;;;;5069851;28;20036;-70
2022/06/27 07:51:22;;;;;;;2.25;1.00;;;;;;;;;;5061413;28;20028;-70
2022/06/27 07:54:10;;;;;;;3.95;0.98;;;;;;;;;;5068377;28;20375;-69
2022/06/27 07:56:55;;;;;;;2.25;1.02;;;;;;;;;;5057318;28;20661;-69
2022/06/27 07:59:41;;;;;;;4.35;1.65;;;;;;;;;;5070857;28;20392;-69
2022/06/27 08:02:26;;;;;;;3.13;1.08;;;;;;;;;;5071397;28;20021;-70
2022/06/27 08:05:12;;;;;;;1.40;0.95;;;;;;;;;;5071485;28;20092;-74
2022/06/27 08:07:59;;;;;;;4.35;1.02;;;;;;;;;;5070931;28;20052;-76
2022/06/27 08:10:44;;;;;;;3.13;0.80;;;;;;;;;;5072154;28;20028;-77
2022/06/27 08:13:31;;;;;;;4.40;1.35;;;;;;;;;;5071213;28;20108;-77
2022/06/27 08:16:18;;;;;;;4.30;1.02;;;;;;;;;;5071664;28;20085;-77
2022/06/27 08:19:04;;;;;;;1.00;0.82;;;;;;;;;;5071239;28;20036;-77
2022/06/27 08:21:49;;;;;;;2.10;1.27;;;;;;;;;;5071375;28;20036;-77
2022/06/27 08:24:36;;;;;;;3.78;1.00;;;;;;;;;;5070207;28;20108;-78
2022/06/27 08:27:21;;;;;;;1.70;0.93;;;;;;;;;;5072018;28;20020;-67
2022/06/27 08:30:09;;;;;;;2.15;1.42;;;;;;;;;;5056000;28;20383;-69
2022/06/27 08:32:56;;;;;;;2.22;0.90;;;;;;;;;;5071215;28;20046;-68
2022/06/27 08:35:47;;;;;;;1.83;1.00;;;;;;;;;;5071252;28;20086;-68
2022/06/27 08:38:39;;;;;;;4.63;1.45;;;;;;;;;;5069100;28;20024;-69
2022/06/27 08:41:25;;;;;;;2.35;1.00;;;;;;;;;;5071105;28;20107;-71
2022/06/27 08:44:11;;;;;;;3.10;1.20;;;;;;;;;;5071349;28;20028;-74
2022/06/27 08:46:57;;;;;;;3.17;1.02;;;;;;;;;;5071030;28;20036;-74
2022/06/27 08:49:46;;;;;;;3.75;1.48;;;;;;;;;;5056503;28;20392;-74
2022/06/27 08:52:32;;;;;;;2.57;1.00;;;;;;;;;;5069892;28;20036;-75
2022/06/27 08:55:18;;;;;;;1.92;1.08;;;;;;;;;;5064800;28;20028;-75
2022/06/27 08:58:05;;;;;;;2.10;0.80;;;;;;;;;;5070712;28;20029;-74
2022/06/27 09:00:51;;;;;;;1.15;0.90;;;;;;;;;;5073482;28;20036;-75
2022/06/27 09:03:36;;;;;;;1.40;1.00;;;;;;;;;;5074818;28;20032;-75
2022/06/27 09:06:22;;;;;;;1.20;1.00;;;;;;;;;;5075576;28;20032;-74
2022/06/27 09:09:08;;;;;;;2.17;1.08;;;;;;;;;;5073514;28;20163;-74
2022/06/27 09:11:54;;;;;;;2.53;0.98;;;;;;;;;;5074774;28;20048;-74
2022/06/27 09:14:41;;;;;;;2.97;1.13;;;;;;;;;;5074289;28;20443;-75
2022/06/27 09:17:26;;;;;;;2.60;0.90;;;;;;;;;;5075295;28;20016;-68
2022/06/27 09:20:12;;;;;;;1.52;0.98;;;;;;;;;;5074740;28;20557;-69
2022/06/27 09:23:00;;;;;;;1.50;1.10;;;;;;;;;;5073332;28;20115;-68
2022/06/27 09:25:45;;;;;;;4.75;0.90;;;;;;;;;;5061798;28;20025;-69
2022/06/27 09:28:43;;;;;;;1.50;0.90;;;;;;;;;;5060422;28;20036;-68
2022/06/27 09:31:30;;;;;;;2.50;1.20;;;;;;;;;;5074294;28;20039;-69
2022/06/27 09:34:19;;;;;;;1.33;1.00;;;;;;;;;;5060191;28;20498;-69
2022/06/27 09:37:05;;;;;;;1.27;1.00;;;;;;;;;;5072961;28;20040;-69
2022/06/27 09:39:51;;;;;;;1.23;0.95;;;;;;;;;;5074695;28;20135;-75
2022/06/27 09:42:38;;;;;;;2.03;1.05;;;;;;;;;;5046303;28;20434;-74
2022/06/27 09:45:25;;;;;;;2.83;1.20;;;;;;;;;;5073304;28;20067;-73
2022/06/27 09:48:12;;;;;;;4.30;1.50;;;;;;;;;;5074140;28;20038;-73
2022/06/27 09:50:58;;;;;;;1.73;1.20;;;;;;;;;;5073782;28;20165;-73
2022/06/27 09:53:50;;;;;;;3.33;1.08;;;;;;;;;;5072888;28;20032;-75
2022/06/27 09:56:39;;;;;;;2.67;0.90;;;;;;;;;;5074205;28;20099;-78
2022/06/27 09:59:25;;;;;;;5.80;1.50;;;;;;;;;;5073767;28;20028;-73
2022/06/27 10:02:16;;;;;;;1.55;0.98;;;;;;;;;;5073339;28;20036;-71
2022/06/27 10:05:02;;;;;;;2.17;1.10;;;;;;;;;;5063101;28;20391;-72
2022/06/27 10:07:58;;;;;;;1.58;0.80;;;;;;;;;;5073180;28;20063;-71
2022/06/27 10:11:07;;;;;;;2.00;0.90;;;;;;;;;;5070062;28;20058;-71
2022/06/27 10:14:19;;;;;;;1.92;1.00;;;;;;;;;;5073243;28;20418;-69
2022/06/27 10:17:06;;;;;;;1.25;0.93;;;;;;;;;;5060715;28;20068;-77
2022/06/27 10:20:01;;;;;;;1.25;0.90;;;;;;;;;;5072123;28;20036;-76
2022/06/27 10:23:07;;;;;;;2.40;1.35;;;;;;;;;;5072532;28;20054;-77
2022/06/27 10:25:53;;;;;;;2.47;1.33;;;;;;;;;;5071064;28;20037;-76
2022/06/27 10:28:40;;;;;;;2.65;1.55;;;;;;;;;;5072539;28;20039;-76
2022/06/27 10:31:43;;;;;;;2.63;1.40;;;;;;;;;;5073974;28;20380;-71
2022/06/27 10:34:37;;;;;;;3.45;1.65;;;;;;;;;;5069797;28;20111;-70
2022/06/27 10:37:26;;;;;;;2.95;1.67;;;;;;;;;;5071424;28;20487;-72
2022/06/27 10:40:17;;;;;;;2.28;1.42;;;;;;;;;;5073044;28;20456;-71
2022/06/27 10:43:02;;;;;;;3.80;1.52;;;;;;;;;;5072120;28;20067;-70
2022/06/27 10:45:48;;;;;;;3.15;1.95;;;;;;;;;;5073757;28;20471;-71
2022/06/27 10:48:35;;;;;;;2.38;1.55;;;;;;;;;;5072997;28;20040;-71
2022/06/27 10:51:26;;;;;;;4.22;1.85;;;;;;;;;;5072099;28;20038;-71
2022/06/27 10:54:12;;;;;;;3.58;1.90;;;;;;;;;;5057716;28;20021;-69
2022/06/27 10:56:58;;;;;;;3.03;1.80;;;;;;;;;;5072837;28;20103;-68
2022/06/27 10:59:43;;;;;;;2.42;2.08;;;;;;;;;;5069307;28;20081;-71
2022/06/27 11:02:30;;;;;;;2.20;1.90;;;;;;;;;;5072600;28;20036;-69
2022/06/27 11:05:15;;;;;;;3.72;1.52;;;;;;;;;;5072531;28;20040;-69
2022/06/27 11:08:01;;;;;;;2.28;1.70;;;;;;;;;;5072185;28;20040;-69
2022/06/27 11:10:47;;;;;;;2.75;1.70;;;;;;;;;;5073682;28;20470;-68
2022/06/27 11:13:35;;;;;;;2.75;1.70;;;;;;;;;;5057836;28;20032;-75
2022/06/27 11:16:25;;;;;;;3.97;1.83;;;;;;;;;;5071414;28;20423;-77
2022/06/27 11:22:21;;;;;;;3.85;2.13;;;;;;;;;;5071666;28;20028;-75
2022/06/27 11:25:07;;;;;;;2.45;1.80;;;;;;;;;;5071841;28;20032;-75
2022/06/27 11:27:54;;;;;;;3.63;1.83;;;;;;;;;;5063971;28;20074;-74
2022/06/27 11:33:46;;;;;;;1.80;1.65;;;;;;;;;;5071907;28;20028;-69
2022/06/27 11:36:31;;;;;;;2.72;1.65;;;;;;;;;;5070423;28;20493;-69
2022/06/27 11:39:24;;;;;;;2.83;1.80;;;;;;;;;;5060001;28;20029;-69
2022/06/27 11:42:10;;;;;;;3.08;1.60;;;;;;;;;;5071626;28;20395;-69
2022/06/27 11:45:04;;;;;;;2.78;1.75;;;;;;;;;;5056985;28;20028;-70
2022/06/27 11:47:49;;;;;;;5.47;2.20;;;;;;;;;;5070934;28;20067;-70
2022/06/27 11:50:35;;;;;;;2.75;1.75;;;;;;;;;;5070906;28;20446;-69
2022/06/27 11:53:20;;;;;;;2.60;1.70;;;;;;;;;;5073221;28;20033;-69
2022/06/27 11:56:26;;;;;;;2.97;2.28;;;;;;;;;;5071133;28;20075;-69
2022/06/27 11:59:13;;;;;;;2.78;1.92;;;;;;;;;;5072717;28;20520;-69
2022/06/27 12:02:03;;;;;;;4.65;1.70;;;;;;;;;;5057228;28;20078;-69
2022/06/27 12:05:00;;;;;;;2.60;1.50;;;;;;;;;;5057857;28;20483;-70
2022/06/27 12:07:56;;;;;;;1.90;1.58;;;;;;;;;;5072241;28;20445;-70
2022/06/27 12:13:58;;;;;;;2.97;1.90;;;;;;;;;;5071754;28;20029;-70
2022/06/27 12:16:44;;;;;;;3.53;1.77;;;;;;;;;;5056752;28;20103;-70
2022/06/27 12:19:30;;;;;;;2.50;1.60;;;;;;;;;;5070346;28;20044;-70
2022/06/27 12:22:18;;;;;;;5.53;1.90;;;;;;;;;;5059188;28;20032;-69
2022/06/27 12:25:04;;;;;;;3.72;1.70;;;;;;;;;;5072049;28;20028;-71
2022/06/27 12:27:49;;;;;;;2.95;1.70;;;;;;;;;;5071389;28;20041;-70
2022/06/27 12:30:35;;;;;;;4.10;1.80;;;;;;;;;;5071913;28;20032;-69
2022/06/27 12:33:21;;;;;;;2.28;1.80;;;;;;;;;;5070386;28;20078;-69
2022/06/27 12:36:07;;;;;;;2.00;1.52;;;;;;;;;;5071802;28;20372;-68
2022/06/27 12:38:53;;;;;;;2.33;1.65;;;;;;;;;;5075942;28;20033;-72
2022/06/27 12:41:39;;;;;;;5.53;1.80;;;;;;;;;;5068785;28;20612;-75
2022/06/27 12:44:25;;;;;;;1.63;1.52;;;;;;;;;;5060187;28;20071;-70
2022/06/27 12:47:11;;;;;;;1.92;1.67;;;;;;;;;;5075693;28;20035;-69
2022/06/27 12:49:57;;;;;;;4.00;1.67;;;;;;;;;;5074058;28;20047;-70
2022/06/27 12:52:42;;;;;;;2.13;1.85;;;;;;;;;;5075971;28;20504;-70
2022/06/27 12:55:28;;;;;;;2.35;2.00;;;;;;;;;;5074589;28;20059;-69
2022/06/27 12:58:14;;;;;;;3.38;1.67;;;;;;;;;;5060036;28;20104;-70
2022/06/27 13:01:00;;;;;;;3.25;2.00;;;;;;;;;;5073773;28;20039;-78
2022/06/27 13:03:45;;;;;;;1.95;1.70;;;;;;;;;;5058483;28;20028;-70
2022/06/27 13:06:31;;;;;;;2.45;1.63;;;;;;;;;;5062715;28;20046;-70
2022/06/27 13:09:16;;;;;;;2.58;1.77;;;;;;;;;;5073412;28;20032;-68
2022/06/27 13:12:02;;;;;;;3.72;1.83;;;;;;;;;;5060814;28;20425;-70
2022/06/27 13:14:48;;;;;;;1.60;1.30;;;;;;;;;;5074834;28;20032;-71
2022/06/27 13:17:33;;;;;;;2.65;1.65;;;;;;;;;;5074493;28;20371;-70
2022/06/27 13:20:19;;;;;;;3.80;2.20;;;;;;;;;;5073868;28;20020;-74
2022/06/27 13:23:04;;;;;;;2.85;1.60;;;;;;;;;;5059151;28;20059;-73
2022/06/27 13:25:50;;;;;;;2.63;1.73;;;;;;;;;;5060756;28;20063;-74
2022/06/27 13:28:35;;;;;;;3.33;1.63;;;;;;;;;;5074466;28;20029;-74
2022/06/27 13:31:21;;;;;;;3.47;1.70;;;;;;;;;;5074670;28;20033;-75
2022/06/27 13:34:07;;;;;;;3.20;1.50;;;;;;;;;;5073654;28;20100;-75
2022/06/27 13:36:53;;;;;;;2.20;1.60;;;;;;;;;;5075791;28;20038;-67
2022/06/27 13:39:39;;;;;;;2.63;1.80;;;;;;;;;;5073622;28;20178;-66
2022/06/27 13:42:24;;;;;;;1.60;1.50;;;;;;;;;;5074016;28;20028;-67
2022/06/27 13:45:13;;;;;;;2.95;1.60;;;;;;;;;;5074457;28;20025;-69
2022/06/27 13:48:01;;;;;;;1.58;1.48;;;;;;;;;;5073169;28;20020;-68
2022/06/27 13:50:46;;;;;;;1.65;1.42;;;;;;;;;;5060351;28;20037;-68
2022/06/27 13:53:32;;;;;;;2.05;1.73;;;;;;;;;;5074552;28;20475;-74
2022/06/27 13:56:18;;;;;;;2.15;1.60;;;;;;;;;;5060068;28;20036;-73
2022/06/27 13:59:04;;;;;;;2.15;1.40;;;;;;;;;;5074039;28;20537;-69
2022/06/27 14:01:49;;;;;;;1.98;1.70;;;;;;;;;;5074133;28;20421;-71
2022/06/27 14:04:35;;;;;;;3.50;1.67;;;;;;;;;;5072952;28;20043;-69
2022/06/27 14:07:37;;;;;;;4.32;1.92;;;;;;;;;;5073331;28;20028;-68
2022/06/27 14:10:24;;;;;;;3.08;1.50;;;;;;;;;;5065959;28;20383;-67
2022/06/27 14:13:10;;;;;;;2.45;1.50;;;;;;;;;;5056071;28;20500;-69
2022/06/27 14:15:56;;;;;;;4.00;1.65;;;;;;;;;;5060376;28;20395;-68
2022/06/27 14:18:41;;;;;;;2.28;1.50;;;;;;;;;;5071614;28;20487;-69
2022/06/27 14:21:31;;;;;;;2.08;1.55;;;;;;;;;;5073682;28;20032;-69
2022/06/27 14:24:16;;;;;;;2.80;1.23;;;;;;;;;;5059582;28;20036;-68
2022/06/27 14:27:02;;;;;;;4.85;1.40;;;;;;;;;;5073812;28;20032;-69
2022/06/27 14:29:48;;;;;;;2.38;1.40;;;;;;;;;;5074170;28;20020;-70
2022/06/27 14:32:34;;;;;;;1.70;1.38;;;;;;;;;;5070975;28;20085;-69
2022/06/27 14:35:19;;;;;;;5.10;1.50;;;;;;;;;;5072800;28;20032;-69
2022/06/27 14:38:05;;;;;;;3.08;1.52;;;;;;;;;;5059601;28;20037;-68
2022/06/27 14:40:50;;;;;;;2.60;1.30;;;;;;;;;;5059050;28;20032;-68
2022/06/27 14:43:36;;;;;;;2.08;1.35;;;;;;;;;;5072669;28;20033;-68
2022/06/27 14:46:22;;;;;;;2.72;1.80;;;;;;;;;;5072430;28;20024;-68
2022/06/27 14:49:08;;;;;;;2.20;1.40;;;;;;;;;;5073244;28;20028;-77
2022/06/27 14:51:53;;;;;;;5.05;2.00;;;;;;;;;;5073010;28;20035;-74
2022/06/27 14:54:39;;;;;;;1.80;1.70;;;;;;;;;;5059166;28;20032;-74
2022/06/27 14:57:25;;;;;;;1.70;1.60;;;;;;;;;;5058681;28;20471;-73
2022/06/27 15:00:10;;;;;;;1.70;1.20;;;;;;;;;;5072196;28;20017;-75
2022/06/27 15:02:56;;;;;;;2.42;1.42;;;;;;;;;;5058197;28;20119;-74
2022/06/27 15:05:42;;;;;;;2.90;1.58;;;;;;;;;;5072084;28;20016;-73
2022/06/27 15:08:27;;;;;;;4.55;1.77;;;;;;;;;;5059203;28;20033;-73
2022/06/27 15:14:17;;;;;;;3.08;1.50;;;;;;;;;;5074054;28;20503;-70
2022/06/27 15:17:03;;;;;;;2.53;1.77;;;;;;;;;;5071060;28;20038;-70
2022/06/27 15:19:50;;;;;;;3.78;1.48;;;;;;;;;;5057571;28;20483;-69
2022/06/27 15:22:36;;;;;;;3.83;2.10;;;;;;;;;;5073346;28;20047;-69
2022/06/27 15:25:21;;;;;;;2.38;1.83;;;;;;;;;;5071342;28;20035;-68
2022/06/27 15:28:07;;;;;;;2.50;1.80;;;;;;;;;;5070617;28;20743;-74
2022/06/27 15:30:53;;;;;;;2.17;1.42;;;;;;;;;;5067932;28;20029;-77
2022/06/27 15:33:39;;;;;;;1.75;1.58;;;;;;;;;;5057643;28;20043;-77
2022/06/27 15:36:24;;;;;;;2.75;1.67;;;;;;;;;;5072514;28;20037;-76
2022/06/27 15:39:10;;;;;;;5.07;2.60;;;;;;;;;;5072666;28;20523;-78
2022/06/27 15:41:55;;;;;;;3.28;1.85;;;;;;;;;;5067052;28;20112;-77
2022/06/27 15:44:41;;;;;;;6.10;3.05;;;;;;;;;;5070063;28;20242;-70
2022/06/27 15:47:26;;;;;;;4.13;2.35;;;;;;;;;;5065464;28;20107;-69
2022/06/27 15:50:12;;;;;;;4.88;2.60;;;;;;;;;;5066144;28;20032;-70
2022/06/27 15:52:58;;;;;;;2.50;1.88;;;;;;;;;;5072322;28;20028;-71
2022/06/27 15:55:43;;;;;;;2.60;1.92;;;;;;;;;;5070719;28;20112;-70
2022/06/27 15:58:29;;;;;;;5.82;1.90;;;;;;;;;;5071823;28;20162;-69
2022/06/27 16:01:15;;;;;;;3.50;1.70;;;;;;;;;;5070445;28;20036;-71
2022/06/27 16:04:01;;;;;;;5.07;1.98;;;;;;;;;;5069919;28;20111;-71
2022/06/27 16:06:47;;;;;;;5.75;1.77;;;;;;;;;;5060952;28;20079;-70
2022/06/27 16:09:32;;;;;;;1.83;1.67;;;;;;;;;;5069271;28;20482;-70
2022/06/27 16:12:18;;;;;;;6.75;1.95;;;;;;;;;;5068505;28;20433;-70
2022/06/27 16:15:04;;;;;;;7.13;2.20;;;;;;;;;;5068880;28;20051;-68
2022/06/27 16:17:50;;;;;;;2.75;2.10;;;;;;;;;;5070903;28;20021;-73
2022/06/27 16:20:36;;;;;;;4.43;1.95;;;;;;;;;;5063424;28;20108;-69
2022/06/27 16:23:21;;;;;;;4.97;1.90;;;;;;;;;;5064889;28;20036;-71
2022/06/27 16:26:07;;;;;;;4.68;2.25;;;;;;;;;;5069056;28;20024;-74
2022/06/27 16:28:52;;;;;;;4.43;2.08;;;;;;;;;;5071031;28;20456;-71
2022/06/27 16:31:41;;;;;;;3.95;2.50;;;;;;;;;;5069553;28;20021;-71
2022/06/27 16:34:27;;;;;;;3.72;2.15;;;;;;;;;;5067887;28;20450;-70
2022/06/27 16:37:12;;;;;;;2.65;1.98;;;;;;;;;;5069785;28;20028;-70
2022/06/27 16:39:58;;;;;;;2.25;1.77;;;;;;;;;;5070047;28;20504;-67
2022/06/27 16:45:49;;;;;;;1.77;1.67;;;;;;;;;;5070531;28;20025;-67
2022/06/27 16:48:37;;;;;;;1.95;1.75;;;;;;;;;;5069805;28;20020;-67
2022/06/27 16:51:23;;;;;;;4.33;2.00;;;;;;;;;;5070586;28;20028;-67
2022/06/27 16:54:08;;;;;;;2.05;1.75;;;;;;;;;;5069910;28;20255;-73